Historyczne dane pomiarowe

Dodano dane terminowe – wersja testowa.

Dane z okresu 1951-2018

Wersja bazy: 1.27 [2018-11-28, lista zmian], aktualizacja planowana na 2018-12-07

Dane meteo z obszaru Polski uzyskane na podstawie danych udostępnionych przez Instytut Meteorologii i Gospodarki Wodnej – Państwowy Instytut Badawczy.

 

Wybierz Datę:    

       

TemperaturaWilgotnośćWiatrCiśnienieOpadyŚniegCzas trwania zjawisk
 Stacja t tx tn tng RH VA  wxwx mslp ppp RRR   cm mm wxwxwxwxwxwxwx
2006-11-08 5.4 11.0 2.0 -0.5 84.0- 3.3 1.0---- 0.3------------
2006-11-09 8.1 11.1 5.1 2.2 81.8- 6.3 2.7---- 4.8------------
2006-11-10 6.3 13.1 3.2 1.5 89.8- 5.0 1.3---- 0.6------------
2006-11-11 4.5 6.8 2.4 -0.9 92.3- 6.7 2.7---- 4.3------------
2006-11-12 5.6 7.3 4.9 3.3 83.8- 6.0 2.0---- 1.1------------
2006-11-13 5.4 7.0 4.4 2.8 87.5- 4.0 2.0---- 5.0------------
2006-11-14 8.9 11.9 5.2 4.0 84.5- 3.3 2.0---- 0.0------------
2006-11-15 11.4 14.4 9.9 6.7 83.5- 6.7 1.7---- 0.2------------
2006-11-16 8.7 16.6 3.4 1.4 83.0- 1.3 1.3---- 0.0------------
2006-11-17 8.0 15.3 2.6 -2.2 79.0- 3.0 1.3---- 0.0------------
2006-11-18 8.4 11.6 7.2 2.3 94.8- 7.0 1.0---- 0.0------------
2006-11-19 5.5 9.0 2.0 2.3 93.5- 7.0 1.0---- 0.3------------
2006-11-20 7.1 9.5 5.4 3.8 85.3- 5.3 1.0---- 0.0------------
2006-11-21 5.0 9.6 1.7 -3.5 82.0- 5.7 2.0---- 0.0------------
2006-11-22 6.7 8.3 5.7 2.5 94.3- 8.0 1.0---- 0.6------------
2006-11-23 3.5 7.9 0.1 -3.6 89.5- 5.3 2.3---- 0.3------------
2006-11-24 9.3 13.9 5.7 1.9 76.0- 5.3 1.3---- 0.0------------
2006-11-25 6.9 11.4 4.4 1.7 89.5- 5.0 1.3---- 0.0------------
2006-11-26 8.6 13.7 6.4 2.5 86.5- 3.7 1.0---- 0.0------------
2006-11-27 4.6 6.8 2.9 1.0 98.8- 8.0 0.7---- 0.2------------
2006-11-28 4.9 7.0 2.8 2.9 99.0- 8.0 1.0---- 0.1------------
2006-11-29 5.6 7.2 4.9 4.5 98.3- 8.0 1.3---- 0.0------------
2006-11-30 5.5 9.9 2.4 -1.2 94.3- 4.0 1.0---- 0.0------------
2006-12-01 2.8 9.0 -0.6 -3.3 89.5- 1.7 1.3---- 0.0------------
2006-12-02 2.1 7.8 -1.3 -4.8 90.8- 0.0 1.0---- 0.0------------
2006-12-03 4.1 7.4 1.8 -3.0 86.3- 7.0 1.0---- 1.0------------
2006-12-04 7.2 9.8 4.5 1.8 84.0- 6.7 1.7---- 0.0------------
2006-12-05 9.9 12.7 6.7 3.7 80.5- 6.0 1.7---- 0.6------------
2006-12-06 10.6 12.5 9.5 5.9 81.0- 7.3 2.0---- 0.8------------
2006-12-07 8.7 16.4 4.6 2.6 81.8- 4.3 2.0---- 0.0------------
157.9 ms

 

Źródłem pochodzenia danych jest Instytut Meteorologii i Gospodarki Wodnej – Państwowy Instytut Badawczy. Dane Instytutu Meteorologii i Gospodarki Wodnej – Państwowego Instytutu Badawczego zostały przetworzone.

Dane źródłowe można odnaleźć na stronie https://dane.imgw.pl